createdAt,value
2022-12-03T00:01:22.385Z,99613.72
2022-12-03T00:03:49.239Z,99603.34
2022-12-03T00:06:17.658Z,99601.63
2022-12-03T00:08:44.445Z,99610.28
2022-12-03T00:11:11.560Z,99613.72
2022-12-03T00:13:38.368Z,99610.25
2022-12-03T00:16:05.724Z,99616.31
2022-12-03T00:18:32.595Z,99618.06
2022-12-03T00:20:59.665Z,99615.47
2022-12-03T00:23:26.499Z,99627.59
2022-12-03T00:25:53.657Z,99621.53
2022-12-03T00:28:20.404Z,99621.50
2022-12-03T00:30:47.539Z,99627.59
2022-12-03T00:33:14.340Z,99629.31
2022-12-03T00:35:41.364Z,99639.69
2022-12-03T00:38:08.164Z,99633.63
2022-12-03T00:40:35.251Z,99633.59
2022-12-03T00:43:02.038Z,99628.41
2022-12-03T00:45:29.177Z,99636.19
2022-12-03T00:47:56.071Z,99635.31
2022-12-03T00:50:23.262Z,99639.69
2022-12-03T00:52:50.046Z,99634.50
2022-12-03T00:55:17.399Z,99631.03
2022-12-03T00:57:44.261Z,99633.63
2022-12-03T01:00:12.527Z,99641.47
2022-12-03T01:02:39.303Z,99634.53
2022-12-03T01:05:07.020Z,99625.84
2022-12-03T01:07:33.889Z,99634.53
2022-12-03T01:10:01.035Z,99632.78
2022-12-03T01:12:27.839Z,99638.00
2022-12-03T01:14:55.221Z,99632.81
2022-12-03T01:17:22.383Z,99629.34
2022-12-03T01:19:52.417Z,99627.63
2022-12-03T01:22:19.244Z,99625.00
2022-12-03T01:24:46.331Z,99626.75
2022-12-03T01:27:13.168Z,99618.94
2022-12-03T01:29:40.289Z,99621.50
2022-12-03T01:32:22.079Z,99617.19
2022-12-03T01:34:51.788Z,99618.06
2022-12-03T01:37:20.806Z,99615.47
2022-12-03T01:39:47.780Z,99618.94
2022-12-03T01:42:21.463Z,99620.69
2022-12-03T01:44:51.050Z,99620.66
2022-12-03T01:47:20.076Z,99618.94
2022-12-03T01:49:51.295Z,99616.34
2022-12-03T01:52:21.556Z,99618.06
2022-12-03T01:54:55.786Z,99618.09
2022-12-03T01:57:26.728Z,99622.41
2022-12-03T01:59:55.808Z,99618.97
2022-12-03T02:02:31.525Z,99617.25
2022-12-03T02:05:00.182Z,99610.31
2022-12-03T02:07:32.638Z,99619.84
2022-12-03T02:10:02.199Z,99621.56
2022-12-03T02:12:37.064Z,99627.63
2022-12-03T02:15:07.165Z,99624.16
2022-12-03T02:17:34.282Z,99624.16
2022-12-03T02:20:04.397Z,99625.03
2022-12-03T02:22:33.831Z,99621.56
2022-12-03T02:25:18.315Z,99624.16
2022-12-03T02:27:46.107Z,99620.72
2022-12-03T02:30:16.480Z,99619.84
2022-12-03T02:32:43.591Z,99626.75
2022-12-03T02:35:16.899Z,99623.31
2022-12-03T02:37:46.104Z,99631.97
2022-12-03T02:43:01.251Z,99628.53
2022-12-03T02:45:36.047Z,99626.81
2022-12-03T02:48:13.794Z,99631.13
2022-12-03T02:50:44.764Z,99626.81
2022-12-03T02:53:19.307Z,99629.41
2022-12-03T02:55:47.380Z,99631.13
2022-12-03T02:58:15.165Z,99623.38
2022-12-03T03:00:43.978Z,99619.88
2022-12-03T03:03:11.333Z,99617.28
2022-12-03T03:05:40.323Z,99619.00
2022-12-03T03:08:08.847Z,99622.50
2022-12-03T03:10:38.740Z,99624.22
2022-12-03T03:13:14.222Z,99619.03
2022-12-03T03:15:42.423Z,99619.88
2022-12-03T03:18:11.042Z,99618.13
2022-12-03T03:20:38.819Z,99622.47
2022-12-03T03:23:11.767Z,99620.72
2022-12-03T03:25:41.150Z,99614.69
2022-12-03T03:28:08.124Z,99611.19
2022-12-03T03:30:36.372Z,99606.00
2022-12-03T03:33:03.256Z,99607.75
2022-12-03T03:35:30.931Z,99612.94
2022-12-03T03:37:58.761Z,99616.38
2022-12-03T03:40:26.957Z,99610.34
2022-12-03T03:42:54.675Z,99606.00
2022-12-03T03:45:28.555Z,99600.81
2022-12-03T03:47:58.185Z,99606.00
2022-12-03T03:50:28.271Z,99602.53
2022-12-03T03:52:56.369Z,99606.88
2022-12-03T03:55:23.723Z,99609.50
2022-12-03T03:57:50.976Z,99614.69
2022-12-03T04:00:18.354Z,99619.88
2022-12-03T04:02:45.672Z,99614.69
2022-12-03T04:05:21.897Z,99620.72
2022-12-03T04:07:48.774Z,99612.94
2022-12-03T04:10:38.712Z,99618.13
2022-12-03T04:13:06.296Z,99618.13
2022-12-03T04:15:33.408Z,99627.66
2022-12-03T04:18:18.839Z,99612.94
2022-12-03T04:20:45.917Z,99625.91
2022-12-03T04:23:12.681Z,99637.16
2022-12-03T04:25:58.184Z,99627.66
2022-12-03T04:28:43.634Z,99633.72
2022-12-03T04:31:29.377Z,99630.25
2022-12-03T04:34:14.621Z,99635.44
2022-12-03T04:36:41.739Z,99636.28
2022-12-03T04:39:08.581Z,99637.16
2022-12-03T04:41:35.632Z,99630.25
2022-12-03T04:44:20.733Z,99627.63
2022-12-03T04:46:47.937Z,99630.25
2022-12-03T04:49:15.017Z,99625.91
2022-12-03T04:51:42.083Z,99626.75
2022-12-03T04:54:08.989Z,99628.50
2022-12-03T04:56:36.123Z,99625.88
2022-12-03T04:59:03.146Z,99623.28
2022-12-03T05:01:30.309Z,99624.16
2022-12-03T05:03:57.179Z,99626.75
2022-12-03T05:06:24.306Z,99638.84
2022-12-03T05:08:51.108Z,99627.59
2022-12-03T05:11:18.136Z,99627.59
2022-12-03T05:13:44.895Z,99632.78
2022-12-03T05:16:11.971Z,99631.91
2022-12-03T05:18:38.843Z,99634.50
2022-12-03T05:21:06.099Z,99636.22
2022-12-03T05:23:32.870Z,99636.22
2022-12-03T05:25:59.953Z,99641.38
2022-12-03T05:28:26.817Z,99631.91
2022-12-03T05:30:53.960Z,99645.75
2022-12-03T05:33:21.104Z,99640.56
2022-12-03T05:35:48.249Z,99648.34
2022-12-03T05:38:15.139Z,99642.31
2022-12-03T05:40:42.287Z,99644.00
2022-12-03T05:43:09.076Z,99635.38
2022-12-03T05:45:38.844Z,99642.28
2022-12-03T05:48:07.991Z,99654.44
2022-12-03T05:50:36.952Z,99651.00
2022-12-03T05:53:04.219Z,99645.78
2022-12-03T05:55:31.718Z,99648.41
2022-12-03T05:57:58.498Z,99656.22
2022-12-03T06:00:28.556Z,99650.13
2022-12-03T06:02:55.962Z,99655.34
2022-12-03T06:05:24.161Z,99654.50
2022-12-03T06:07:52.295Z,99655.38
2022-12-03T06:10:23.471Z,99655.38
2022-12-03T06:12:50.785Z,99658.84
2022-12-03T06:15:18.820Z,99658.84
2022-12-03T06:17:45.721Z,99653.66
2022-12-03T06:20:15.485Z,99658.00
2022-12-03T06:22:42.892Z,99651.91
2022-12-03T06:25:10.931Z,99657.97
2022-12-03T06:27:37.876Z,99656.22
2022-12-03T06:30:06.703Z,99652.78
2022-12-03T06:32:33.543Z,99652.78
2022-12-03T06:35:00.679Z,99664.88
2022-12-03T06:37:27.476Z,99657.97
2022-12-03T06:39:54.535Z,99650.19
2022-12-03T06:42:21.313Z,99650.16
2022-12-03T06:44:48.388Z,99647.56
2022-12-03T06:47:15.221Z,99647.59
2022-12-03T06:49:42.305Z,99646.72
2022-12-03T06:52:09.085Z,99646.75
2022-12-03T06:54:36.199Z,99651.06
2022-12-03T06:57:03.080Z,99657.13
2022-12-03T06:59:34.172Z,99649.34
2022-12-03T07:02:01.305Z,99653.69
2022-12-03T07:04:28.413Z,99645.94
2022-12-03T07:06:55.259Z,99652.00
2022-12-03T07:09:22.403Z,99655.47
2022-12-03T07:11:49.205Z,99657.22
2022-12-03T07:14:16.296Z,99649.47
2022-12-03T07:16:43.806Z,99646.91
2022-12-03T07:19:11.629Z,99652.16
2022-12-03T07:21:38.500Z,99654.75
2022-12-03T07:24:06.533Z,99655.66
2022-12-03T07:26:33.416Z,99658.28
2022-12-03T07:29:00.507Z,99660.91
2022-12-03T07:31:27.419Z,99663.50
2022-12-03T07:33:54.642Z,99666.06
2022-12-03T07:36:21.438Z,99666.94
2022-12-03T07:38:49.296Z,99663.44
2022-12-03T07:41:16.260Z,99667.75
2022-12-03T07:43:44.895Z,99666.00
2022-12-03T07:46:11.915Z,99661.66
2022-12-03T07:48:39.139Z,99665.09
2022-12-03T07:51:06.243Z,99672.03
2022-12-03T07:53:33.480Z,99675.53
2022-12-03T07:56:00.289Z,99672.06
2022-12-03T07:58:27.362Z,99672.97
2022-12-03T08:00:54.205Z,99670.34
2022-12-03T08:03:21.408Z,99661.63
2022-12-03T08:05:48.181Z,99660.72
2022-12-03T08:08:15.674Z,99668.59
2022-12-03T08:10:42.509Z,99670.31
2022-12-03T08:13:18.524Z,99678.16
2022-12-03T08:15:45.758Z,99670.34
2022-12-03T08:18:22.451Z,99669.50
2022-12-03T08:20:51.918Z,99662.50
2022-12-03T08:23:24.624Z,99661.56
2022-12-03T08:25:52.846Z,99663.16
2022-12-03T08:28:23.067Z,99673.50
2022-12-03T08:30:56.059Z,99666.47
2022-12-03T08:33:36.003Z,99683.00
2022-12-03T08:36:22.773Z,99676.09
2022-12-03T08:38:54.708Z,99694.41
2022-12-03T08:41:40.692Z,99680.59
2022-12-03T08:44:27.711Z,99679.78
2022-12-03T08:47:10.037Z,99684.16
2022-12-03T08:49:37.432Z,99680.75
2022-12-03T08:52:13.493Z,99681.59
2022-12-03T08:54:42.128Z,99676.38
2022-12-03T08:57:41.293Z,99673.75
2022-12-03T09:00:24.777Z,99679.88
2022-12-03T09:02:53.812Z,99673.78
2022-12-03T09:05:29.567Z,99685.94
2022-12-03T09:07:56.473Z,99678.16
2022-12-03T09:10:23.637Z,99675.50
2022-12-03T09:12:50.469Z,99684.19
2022-12-03T09:15:17.708Z,99680.72
2022-12-03T09:17:44.527Z,99679.81
2022-12-03T09:20:11.895Z,99684.19
2022-12-03T09:22:38.721Z,99684.16
2022-12-03T09:25:06.371Z,99679.81
2022-12-03T09:27:33.266Z,99675.44
2022-12-03T09:30:00.411Z,99678.00
2022-12-03T09:32:27.352Z,99680.53
2022-12-03T09:34:54.648Z,99684.00
2022-12-03T09:37:22.315Z,99685.75
2022-12-03T09:39:49.380Z,99684.84
2022-12-03T09:42:16.766Z,99684.00
2022-12-03T09:44:44.212Z,99672.72
2022-12-03T09:47:11.629Z,99670.94
2022-12-03T09:49:39.470Z,99669.16
2022-12-03T09:52:06.498Z,99678.66
2022-12-03T09:54:34.506Z,99670.78
2022-12-03T09:57:04.322Z,99674.22
2022-12-03T09:59:33.428Z,99673.28
2022-12-03T10:02:01.579Z,99676.81
2022-12-03T10:04:29.848Z,99667.25
2022-12-03T10:06:58.280Z,99672.44
2022-12-03T10:09:28.532Z,99662.75
2022-12-03T10:11:59.507Z,99657.41
2022-12-03T10:14:27.784Z,99664.22
2022-12-03T10:16:55.188Z,99662.38
2022-12-03T10:19:29.192Z,99662.28
2022-12-03T10:21:56.045Z,99658.78
2022-12-03T10:24:34.615Z,99659.63
2022-12-03T10:27:20.850Z,99663.03
2022-12-03T10:29:56.692Z,99668.31
2022-12-03T10:32:39.723Z,99671.94
2022-12-03T10:35:41.145Z,99666.81
2022-12-03T10:38:17.104Z,99662.41
2022-12-03T10:40:44.507Z,99662.31
2022-12-03T10:43:24.650Z,99663.09
2022-12-03T10:46:12.073Z,99659.34
2022-12-03T10:48:39.054Z,99652.03
2022-12-03T10:51:11.797Z,99662.22
2022-12-03T10:53:40.620Z,99656.53
2022-12-03T10:56:13.801Z,99655.84
2022-12-03T10:58:41.739Z,99667.09
2022-12-03T11:01:22.007Z,99668.03
2022-12-03T11:03:49.811Z,99662.56
2022-12-03T11:06:20.372Z,99664.75
2022-12-03T11:08:56.160Z,99665.25
2022-12-03T11:11:30.461Z,99654.75
2022-12-03T11:14:00.145Z,99646.09
2022-12-03T11:16:39.487Z,99645.38
2022-12-03T11:19:20.046Z,99648.63
2022-12-03T11:22:05.526Z,99648.97
2022-12-03T11:24:38.133Z,99647.38
2022-12-03T11:27:06.921Z,99640.84
2022-12-03T11:30:00.856Z,99642.25
2022-12-03T11:32:43.259Z,99639.22
2022-12-03T11:35:37.462Z,99641.63
2022-12-03T11:38:40.881Z,99638.34
2022-12-03T11:41:14.314Z,99640.44
2022-12-03T11:43:53.527Z,99645.28
2022-12-03T11:46:39.734Z,99644.66
2022-12-03T11:49:30.026Z,99642.09
2022-12-03T11:52:00.285Z,99641.69
2022-12-03T11:54:27.533Z,99642.84
2022-12-03T11:56:56.512Z,99638.38
2022-12-03T11:59:23.712Z,99644.78
2022-12-03T12:01:50.534Z,99644.75
2022-12-03T12:04:37.863Z,99643.94
2022-12-03T12:07:04.842Z,99646.75
2022-12-03T12:09:52.322Z,99645.91
2022-12-03T12:12:27.081Z,99646.34
2022-12-03T12:14:54.256Z,99645.97
2022-12-03T12:17:35.244Z,99646.28
2022-12-03T12:20:28.068Z,99651.88
2022-12-03T12:22:55.696Z,99641.41
2022-12-03T12:25:38.512Z,99637.38
2022-12-03T12:28:05.371Z,99640.13
2022-12-03T12:30:32.588Z,99639.44
2022-12-03T12:32:59.334Z,99640.31
2022-12-03T12:35:32.549Z,99639.59
2022-12-03T12:38:10.946Z,99635.59
2022-12-03T12:40:40.206Z,99642.75
2022-12-03T12:43:23.497Z,99630.84
2022-12-03T12:45:56.919Z,99632.75
2022-12-03T12:48:26.865Z,99624.91
2022-12-03T12:50:58.816Z,99631.81
2022-12-03T12:53:27.061Z,99630.63
2022-12-03T12:56:06.757Z,99641.59
2022-12-03T12:58:33.801Z,99640.97
2022-12-03T13:01:05.856Z,99641.00
2022-12-03T13:03:36.141Z,99648.53
2022-12-03T13:06:04.176Z,99644.59
2022-12-03T13:08:34.081Z,99643.91
2022-12-03T13:11:02.250Z,99637.94
2022-12-03T13:13:31.120Z,99640.66
2022-12-03T13:16:07.118Z,99638.97
2022-12-03T13:18:54.623Z,99640.72
2022-12-03T13:21:40.794Z,99632.09
2022-12-03T13:24:28.932Z,99637.31
2022-12-03T13:26:56.971Z,99638.22
2022-12-03T13:29:25.985Z,99637.38
2022-12-03T13:32:14.046Z,99634.78
2022-12-03T13:34:41.144Z,99651.28
2022-12-03T13:37:19.760Z,99651.31
2022-12-03T13:39:49.119Z,99651.34
2022-12-03T13:42:41.032Z,99658.28
2022-12-03T13:45:13.912Z,99653.06
2022-12-03T13:47:45.016Z,99648.75
2022-12-03T13:50:22.297Z,99660.03
2022-12-03T13:52:49.429Z,99662.63
2022-12-03T13:55:29.102Z,99659.16
2022-12-03T13:57:56.745Z,99653.06
2022-12-03T14:00:24.451Z,99653.94
2022-12-03T14:02:51.810Z,99660.88
2022-12-03T14:05:19.034Z,99660.91
2022-12-03T14:07:46.220Z,99654.81
2022-12-03T14:10:13.585Z,99656.53
2022-12-03T14:12:40.676Z,99652.19
2022-12-03T14:15:09.177Z,99654.81
2022-12-03T14:17:36.519Z,99661.75
2022-12-03T14:20:04.366Z,99662.59
2022-12-03T14:22:31.446Z,99660.91
2022-12-03T14:24:58.268Z,99653.06
2022-12-03T14:27:25.368Z,99660.88
2022-12-03T14:29:52.883Z,99658.31
2022-12-03T14:32:20.100Z,99660.03
2022-12-03T14:34:46.927Z,99662.63
2022-12-03T14:37:13.991Z,99663.47
2022-12-03T14:39:40.901Z,99657.41
2022-12-03T14:42:14.054Z,99660.03
2022-12-03T14:44:42.630Z,99677.38
2022-12-03T14:47:10.470Z,99684.31
2022-12-03T14:49:37.874Z,99676.53
2022-12-03T14:52:08.518Z,99673.03
2022-12-03T14:54:39.276Z,99684.31
2022-12-03T14:57:06.339Z,99682.56
2022-12-03T14:59:33.119Z,99675.63
2022-12-03T15:02:00.319Z,99677.38
2022-12-03T15:04:27.261Z,99687.81
2022-12-03T15:06:54.313Z,99682.56
2022-12-03T15:09:21.273Z,99681.72
2022-12-03T15:11:48.336Z,99689.53
2022-12-03T15:14:15.539Z,99686.03
2022-12-03T15:16:42.671Z,99691.25
2022-12-03T15:19:09.692Z,99699.06
2022-12-03T15:21:36.900Z,99699.94
2022-12-03T15:24:04.027Z,99692.13
2022-12-03T15:26:31.077Z,99696.47
2022-12-03T15:28:57.921Z,99690.41
2022-12-03T15:31:25.029Z,99688.66
2022-12-03T15:33:51.934Z,99692.09
2022-12-03T15:36:19.086Z,99690.38
2022-12-03T15:38:45.973Z,99694.72
2022-12-03T15:41:23.375Z,99704.25
2022-12-03T15:43:53.408Z,99712.09
2022-12-03T15:46:20.781Z,99704.28
2022-12-03T15:48:48.184Z,99696.47
2022-12-03T15:51:15.732Z,99705.13
2022-12-03T15:53:42.979Z,99701.66
2022-12-03T15:56:11.979Z,99713.81
2022-12-03T15:58:40.001Z,99716.41
2022-12-03T16:01:08.494Z,99708.59
2022-12-03T16:03:35.952Z,99712.09
2022-12-03T16:06:03.150Z,99705.13
2022-12-03T16:08:29.943Z,99709.47
2022-12-03T16:10:57.171Z,99713.78
2022-12-03T16:13:24.007Z,99699.94
2022-12-03T16:15:51.205Z,99702.53
2022-12-03T16:18:17.993Z,99700.78
2022-12-03T16:20:45.104Z,99707.72
2022-12-03T16:23:11.889Z,99710.34
2022-12-03T16:25:39.048Z,99717.28
2022-12-03T16:28:05.857Z,99725.09
2022-12-03T16:30:32.948Z,99725.06
2022-12-03T16:32:59.714Z,99719.00
2022-12-03T16:35:26.845Z,99724.19
2022-12-03T16:37:53.613Z,99723.34
2022-12-03T16:40:20.679Z,99727.69
2022-12-03T16:42:47.457Z,99716.41
2022-12-03T16:45:40.766Z,99720.75
2022-12-03T16:48:07.590Z,99729.41
2022-12-03T16:50:37.652Z,99717.25
2022-12-03T16:53:04.584Z,99718.13
2022-12-03T16:55:31.669Z,99719.84
2022-12-03T16:57:58.431Z,99705.13
2022-12-03T17:00:26.345Z,99710.28
2022-12-03T17:02:53.278Z,99709.41
2022-12-03T17:05:20.420Z,99716.34
2022-12-03T17:07:47.265Z,99719.84
2022-12-03T17:10:14.587Z,99738.91
2022-12-03T17:13:08.641Z,99728.50
2022-12-03T17:15:28.549Z,99727.66
2022-12-03T17:17:55.499Z,99729.38
2022-12-03T17:20:22.835Z,99731.09
2022-12-03T17:22:49.666Z,99731.97
2022-12-03T17:25:17.300Z,99746.69
2022-12-03T17:27:45.522Z,99740.66
2022-12-03T17:30:13.379Z,99742.38
2022-12-03T17:32:40.627Z,99742.38
2022-12-03T17:35:08.736Z,99748.44
2022-12-03T17:37:35.652Z,99747.53
2022-12-03T17:40:05.784Z,99740.63
2022-12-03T17:42:32.597Z,99746.66
2022-12-03T17:44:59.670Z,99747.53
2022-12-03T17:47:26.373Z,99752.72
2022-12-03T17:49:53.910Z,99751.00
2022-12-03T17:52:20.902Z,99747.53
2022-12-03T17:55:10.121Z,99748.41
2022-12-03T17:57:35.270Z,99751.00
2022-12-03T18:00:02.435Z,99750.13
2022-12-03T18:02:29.268Z,99750.13
2022-12-03T18:04:56.460Z,99748.38
2022-12-03T18:07:23.258Z,99748.34
2022-12-03T18:09:50.353Z,99747.50
2022-12-03T18:12:17.349Z,99750.97
2022-12-03T18:14:44.613Z,99750.97
2022-12-03T18:17:11.957Z,99750.97
2022-12-03T18:19:39.040Z,99748.34
2022-12-03T18:22:06.095Z,99752.69
2022-12-03T18:24:33.409Z,99752.66
2022-12-03T18:27:00.275Z,99751.81
2022-12-03T18:29:27.405Z,99751.78
2022-12-03T18:31:55.440Z,99756.13
2022-12-03T18:34:22.656Z,99752.63
2022-12-03T18:36:49.930Z,99747.44
2022-12-03T18:39:34.742Z,99752.63
2022-12-03T18:42:01.798Z,99753.50
2022-12-03T18:44:31.732Z,99747.41
2022-12-03T18:46:59.527Z,99742.25
2022-12-03T18:49:26.635Z,99741.38
2022-12-03T18:51:58.916Z,99743.97
2022-12-03T18:54:26.771Z,99748.25
2022-12-03T18:56:53.549Z,99746.53
2022-12-03T18:59:20.756Z,99750.84
2022-12-03T19:01:47.657Z,99748.25
2022-12-03T19:04:14.760Z,99755.19
2022-12-03T19:06:41.642Z,99763.84
2022-12-03T19:09:09.174Z,99760.34
2022-12-03T19:11:36.392Z,99766.38
2022-12-03T19:14:03.457Z,99768.09
2022-12-03T19:16:30.639Z,99762.91
2022-12-03T19:18:57.890Z,99761.16
2022-12-03T19:21:27.235Z,99769.78
2022-12-03T19:24:22.819Z,99764.56
2022-12-03T19:26:43.310Z,99764.56
2022-12-03T19:29:10.744Z,99768.88
2022-12-03T19:31:37.560Z,99765.41
2022-12-03T19:34:04.677Z,99767.13
2022-12-03T19:36:32.259Z,99768.00
2022-12-03T19:39:00.531Z,99768.03
2022-12-03T19:41:30.654Z,99769.72
2022-12-03T19:43:58.636Z,99772.38
2022-12-03T19:46:28.767Z,99774.94
2022-12-03T19:48:56.226Z,99772.38
2022-12-03T19:51:34.480Z,99775.78
2022-12-03T19:54:02.798Z,99778.38
2022-12-03T19:56:32.455Z,99781.81
2022-12-03T19:58:59.747Z,99789.59
2022-12-03T20:01:29.804Z,99784.38
2022-12-03T20:03:58.675Z,99780.03
2022-12-03T20:06:28.810Z,99768.81
2022-12-03T20:09:00.958Z,99776.59
2022-12-03T20:11:31.100Z,99780.03
2022-12-03T20:14:04.687Z,99776.56
2022-12-03T20:16:31.997Z,99774.00
2022-12-03T20:19:01.968Z,99764.47
2022-12-03T20:21:30.658Z,99768.75
2022-12-03T20:23:57.953Z,99773.88
2022-12-03T20:26:25.569Z,99765.16
2022-12-03T20:28:57.044Z,99766.00
2022-12-03T20:31:26.731Z,99766.03
2022-12-03T20:33:56.987Z,99779.03
2022-12-03T20:36:24.460Z,99774.72
2022-12-03T20:38:56.044Z,99778.19
2022-12-03T20:41:23.552Z,99776.44
2022-12-03T20:43:51.289Z,99773.00
2022-12-03T20:46:21.718Z,99772.13
2022-12-03T20:48:49.085Z,99780.78
2022-12-03T20:51:18.692Z,99785.09
2022-12-03T20:53:46.398Z,99770.38
2022-12-03T20:56:20.263Z,99772.13
2022-12-03T20:58:49.074Z,99777.31
2022-12-03T21:01:24.613Z,99771.28
2022-12-03T21:03:53.054Z,99772.97
2022-12-03T21:06:20.613Z,99772.09
2022-12-03T21:08:48.608Z,99767.75
2022-12-03T21:11:18.510Z,99774.66
2022-12-03T21:13:46.860Z,99772.06
2022-12-03T21:16:23.085Z,99782.47
2022-12-03T21:19:01.923Z,99784.16
2022-12-03T21:21:30.384Z,99773.78
2022-12-03T21:23:57.968Z,99772.06
2022-12-03T21:26:25.036Z,99772.06
2022-12-03T21:28:53.302Z,99778.97
2022-12-03T21:31:25.348Z,99778.03
2022-12-03T21:33:54.927Z,99783.25
2022-12-03T21:36:23.270Z,99779.78
2022-12-03T21:38:50.863Z,99771.97
2022-12-03T21:41:18.363Z,99769.34
2022-12-03T21:43:45.483Z,99778.88
2022-12-03T21:47:12.342Z,99774.53
2022-12-03T21:49:02.439Z,99778.84
2022-12-03T21:51:29.240Z,99767.59
2022-12-03T21:53:56.283Z,99766.72
2022-12-03T21:56:23.134Z,99765.81
2022-12-03T21:58:50.337Z,99773.63
2022-12-03T22:01:22.399Z,99772.78
2022-12-03T22:03:49.989Z,99771.00
2022-12-03T22:06:17.533Z,99764.13
2022-12-03T22:08:45.123Z,99768.41
2022-12-03T22:11:15.242Z,99760.69
2022-12-03T22:13:42.373Z,99761.56
2022-12-03T22:16:13.062Z,99770.19
2022-12-03T22:18:40.745Z,99769.28
2022-12-03T22:21:10.065Z,99766.63
2022-12-03T22:23:37.527Z,99758.00
2022-12-03T22:26:07.851Z,99758.88
2022-12-03T22:28:35.546Z,99770.09
2022-12-03T22:31:06.754Z,99762.28
2022-12-03T22:33:34.308Z,99754.53
2022-12-03T22:36:04.063Z,99751.94
2022-12-03T22:38:32.129Z,99758.84
2022-12-03T22:40:59.727Z,99754.50
2022-12-03T22:43:26.860Z,99750.19
2022-12-03T22:45:54.970Z,99753.66
2022-12-03T22:48:23.242Z,99761.50
2022-12-03T22:50:51.397Z,99746.75
2022-12-03T22:53:19.366Z,99757.94
2022-12-03T22:55:54.630Z,99768.31
2022-12-03T22:58:21.795Z,99758.75
2022-12-03T23:00:48.582Z,99761.41
2022-12-03T23:03:16.137Z,99757.09
2022-12-03T23:05:43.137Z,99761.41
2022-12-03T23:08:16.855Z,99765.78
2022-12-03T23:10:46.385Z,99751.94
2022-12-03T23:13:14.009Z,99758.91
2022-12-03T23:15:48.841Z,99759.69
2022-12-03T23:18:16.957Z,99755.38
2022-12-03T23:20:55.735Z,99758.81
2022-12-03T23:23:24.124Z,99747.53
2022-12-03T23:25:57.930Z,99751.03
2022-12-03T23:28:25.625Z,99748.44
2022-12-03T23:30:52.744Z,99751.84
2022-12-03T23:33:20.259Z,99770.84
2022-12-03T23:35:47.138Z,99763.13
2022-12-03T23:38:14.571Z,99764.84
2022-12-03T23:40:47.748Z,99776.97
2022-12-03T23:43:15.757Z,99744.06
2022-12-03T23:45:42.592Z,99757.03
2022-12-03T23:48:09.610Z,99760.47
2022-12-03T23:50:39.910Z,99763.13
2022-12-03T23:53:06.996Z,99761.41
2022-12-03T23:55:33.867Z,99768.31
2022-12-03T23:58:00.997Z,99764.88
